Time;durP1;ratioP1;P1;durP2;ratioP2;P2;SDS_P1;SDS_P2;PMS_P1;PMS_P2;Temp;Humidity;BMP_temperature;BMP_pressure;BME280_temperature;BME280_humidity;BME280_pressure;Samples;Min_cycle;Max_cycle;Signal;HPM_P1;HPM_P2
2022/10/09 00:01:36;;;;;;;14.00;5.80;;;;;;;6.30;93.20;102366.56;5263722;28;20029;-72
2022/10/09 00:04:08;;;;;;;11.30;4.73;;;;;;;6.25;93.63;102368.09;5263837;28;20033;-71
2022/10/09 00:06:39;;;;;;;10.57;4.33;;;;;;;6.31;93.57;102366.59;5263641;28;20033;-71
2022/10/09 00:09:10;;;;;;;12.80;4.93;;;;;;;6.31;93.83;102371.78;5263484;28;20029;-71
2022/10/09 00:11:42;;;;;;;8.47;4.13;;;;;;;6.31;93.96;102368.28;5263561;28;20120;-72
2022/10/09 00:14:13;;;;;;;9.67;4.50;;;;;;;6.25;93.95;102362.91;5262361;28;20468;-71
2022/10/09 00:16:44;;;;;;;13.97;4.30;;;;;;;6.14;93.52;102371.25;5263843;28;20124;-72
2022/10/09 00:19:16;;;;;;;9.90;5.17;;;;;;;6.23;93.68;102370.66;5263319;28;20029;-71
2022/10/09 00:21:47;;;;;;;11.77;4.33;;;;;;;6.08;93.65;102372.78;5263091;28;20025;-71
2022/10/09 00:24:18;;;;;;;13.30;5.20;;;;;;;6.07;93.89;102368.41;5263258;28;20485;-72
2022/10/09 00:26:50;;;;;;;11.23;5.13;;;;;;;6.04;94.11;102374.41;5263297;28;20482;-72
2022/10/09 00:29:21;;;;;;;9.00;4.67;;;;;;;5.88;94.27;102374.72;5263716;28;20064;-72
2022/10/09 00:31:52;;;;;;;10.00;4.70;;;;;;;5.84;94.32;102366.84;5263285;28;20033;-72
2022/10/09 00:34:24;;;;;;;15.63;4.83;;;;;;;5.91;94.58;102372.19;5261836;28;20061;-71
2022/10/09 00:36:55;;;;;;;12.63;4.80;;;;;;;5.80;94.78;102367.56;5263421;28;20033;-72
2022/10/09 00:39:27;;;;;;;10.70;4.70;;;;;;;5.84;94.88;102366.84;5263192;28;20469;-72
2022/10/09 00:41:58;;;;;;;13.93;5.33;;;;;;;5.73;95.13;102363.03;5263298;28;20087;-72
2022/10/09 00:44:50;;;;;;;13.93;5.07;;;;;;;5.65;95.49;102365.38;5263054;28;20024;-71
2022/10/09 00:47:46;;;;;;;12.18;5.68;;;;;;;5.71;95.63;102366.38;5262818;28;20029;-72
2022/10/09 00:50:43;;;;;;;12.55;4.85;;;;;;;5.58;95.94;102359.94;5262875;28;20029;-71
2022/10/09 00:53:18;;;;;;;10.20;4.63;;;;;;;5.51;96.21;102357.97;5262312;28;20033;-72
2022/10/09 00:55:50;;;;;;;11.32;4.60;;;;;;;5.35;95.90;102369.50;5262807;28;20029;-72
2022/10/09 00:58:23;;;;;;;7.47;4.13;;;;;;;5.35;96.20;102369.50;5262858;28;20491;-71
2022/10/09 01:00:54;;;;;;;9.68;4.82;;;;;;;5.28;96.40;102368.41;5262890;28;20325;-72
2022/10/09 01:03:25;;;;;;;12.80;5.27;;;;;;;5.30;96.62;102359.88;5262552;28;20029;-73
2022/10/09 01:06:30;;;;;;;9.97;4.80;;;;;;;5.22;96.58;102361.31;5262730;28;20112;-72
2022/10/09 01:09:14;;;;;;;11.45;5.45;;;;;;;5.13;96.66;102366.16;5262906;28;20041;-72
2022/10/09 01:11:59;;;;;;;9.25;4.82;;;;;;;5.10;96.52;102354.03;5262966;28;20104;-74
2022/10/09 01:14:38;;;;;;;10.93;4.70;;;;;;;5.07;96.44;102358.19;5262749;28;20041;-72
2022/10/09 01:18:05;;;;;;;11.23;4.63;;;;;;;5.13;96.83;102365.28;5262326;28;20064;-72
2022/10/09 01:21:14;;;;;;;6.18;4.05;;;;;;;5.10;96.62;102368.63;5178304;28;20034;-72
2022/10/09 01:24:23;;;;;;;11.70;4.90;;;;;;;5.07;96.98;102364.25;5252059;28;20049;-72
2022/10/09 01:27:31;;;;;;;8.45;4.57;;;;;;;5.00;96.93;102361.41;5221115;28;20403;-72
2022/10/09 01:30:07;;;;;;;10.32;4.47;;;;;;;4.96;96.62;102359.50;5245357;28;20032;-73
2022/10/09 01:32:45;;;;;;;11.50;4.65;;;;;;;5.06;96.58;102365.06;5262467;28;20029;-73
2022/10/09 01:35:18;;;;;;;10.05;4.13;;;;;;;4.95;96.69;102357.78;5262731;28;20104;-73
2022/10/09 01:37:51;;;;;;;10.77;4.50;;;;;;;4.91;96.64;102357.66;5262140;28;20041;-72
2022/10/09 01:40:25;;;;;;;10.70;4.63;;;;;;;4.89;97.04;102353.25;5262459;28;20033;-73
2022/10/09 01:42:58;;;;;;;8.35;4.05;;;;;;;4.86;97.19;102348.88;5262289;28;20036;-73
2022/10/09 01:45:42;;;;;;;8.65;3.88;;;;;;;4.81;97.32;102341.78;5262356;28;20033;-72
2022/10/09 01:48:21;;;;;;;9.60;4.40;;;;;;;4.78;97.42;102339.94;5262260;28;20029;-73
2022/10/09 01:51:02;;;;;;;11.82;4.85;;;;;;;4.64;97.95;102343.75;5262646;28;20100;-73
2022/10/09 01:53:35;;;;;;;12.75;4.53;;;;;;;4.68;97.85;102343.03;5262037;28;20096;-73
2022/10/09 01:56:10;;;;;;;;;;;;;;;4.66;97.24;102339.53;5262630;28;20024;-74
2022/10/09 01:58:59;;;;;;;9.55;4.43;;;;;;;4.53;97.49;102336.47;5260961;28;19913;-72
2022/10/09 02:01:34;;;;;;;9.57;5.22;;;;;;;4.59;97.61;102329.78;5262224;28;20099;-73
2022/10/09 02:04:09;;;;;;;10.13;4.13;;;;;;;4.55;97.84;102321.03;5261780;28;20082;-73
2022/10/09 02:06:41;;;;;;;8.30;4.65;;;;;;;4.52;97.75;102323.50;5264907;28;20079;-73
2022/10/09 02:09:15;;;;;;;8.35;5.68;;;;;;;4.56;97.71;102327.97;5266197;28;20445;-74
2022/10/09 02:11:53;;;;;;;6.07;3.83;;;;;;;4.44;97.63;102315.47;5266233;28;20037;-78
2022/10/09 02:14:24;;;;;;;9.02;4.38;;;;;;;4.45;97.40;102316.38;5266079;28;20362;-71
2022/10/09 02:17:10;;;;;;;8.47;4.10;;;;;;;4.35;98.15;102310.84;5265980;28;20040;-72
2022/10/09 02:19:58;;;;;;;9.65;4.65;;;;;;;4.36;98.08;102322.06;5266698;28;20021;-73
2022/10/09 02:22:32;;;;;;;8.68;4.88;;;;;;;4.36;98.17;102314.31;5265965;28;20429;-72
2022/10/09 02:25:05;;;;;;;8.77;4.53;;;;;;;4.34;98.35;102314.25;5266621;28;20137;-71
2022/10/09 02:27:37;;;;;;;6.65;4.65;;;;;;;4.27;98.24;102314.84;5265598;28;20037;-72
2022/10/09 02:30:09;;;;;;;10.67;4.97;;;;;;;4.25;98.43;102308.75;5281742;28;20025;-71
2022/10/09 02:32:41;;;;;;;7.68;4.60;;;;;;;4.27;98.69;102303.66;5265657;28;20032;-72
2022/10/09 02:35:12;;;;;;;10.40;5.33;;;;;;;4.21;98.75;102299.13;5265574;28;20058;-72
2022/10/09 02:37:43;;;;;;;11.70;5.90;;;;;;;4.15;99.05;102304.06;5265892;28;20033;-72
2022/10/09 02:40:15;;;;;;;9.37;5.10;;;;;;;4.16;99.27;102305.81;5265562;28;20465;-72
2022/10/09 02:42:46;;;;;;;9.93;5.07;;;;;;;4.18;99.46;102299.88;5265430;28;20029;-72
2022/10/09 02:45:17;;;;;;;10.03;5.50;;;;;;;4.20;99.79;102299.94;5265756;28;20029;-72
2022/10/09 02:47:49;;;;;;;9.00;5.13;;;;;;;4.13;99.20;102305.72;5265303;28;20468;-72
2022/10/09 02:50:20;;;;;;;10.03;5.87;;;;;;;4.19;99.84;102316.28;5265373;28;20028;-72
2022/10/09 02:52:51;;;;;;;11.27;5.43;;;;;;;4.17;99.99;102299.81;5265018;28;20036;-71
2022/10/09 02:55:23;;;;;;;11.77;6.03;;;;;;;4.14;100.00;102297.16;5280942;28;20482;-71
2022/10/09 02:57:54;;;;;;;11.90;6.17;;;;;;;4.11;100.00;102299.63;5265151;28;20057;-71
2022/10/09 03:00:25;;;;;;;14.13;7.90;;;;;;;4.14;100.00;102297.16;5265065;28;20053;-71
2022/10/09 03:02:57;;;;;;;14.30;7.27;;;;;;;4.20;100.00;102303.41;5265338;28;20522;-72
2022/10/09 03:05:28;;;;;;;7.87;5.37;;;;;;;4.23;100.00;102302.63;5265079;28;20032;-71
2022/10/09 03:07:59;;;;;;;14.93;7.60;;;;;;;4.18;100.00;102306.75;5264934;28;20036;-71
2022/10/09 03:10:31;;;;;;;11.10;6.43;;;;;;;4.16;100.00;102280.00;5264643;28;20506;-71
2022/10/09 03:13:03;;;;;;;17.60;7.17;;;;;;;4.08;100.00;102291.75;5264807;28;20483;-72
2022/10/09 03:15:35;;;;;;;16.48;7.53;;;;;;;4.21;100.00;102299.13;5264575;28;20021;-71
2022/10/09 03:18:07;;;;;;;15.05;7.40;;;;;;;4.20;100.00;102292.19;5264459;28;20478;-72
2022/10/09 03:20:38;;;;;;;14.00;7.10;;;;;;;4.20;100.00;102294.78;5264497;28;20033;-72
2022/10/09 03:23:10;;;;;;;15.17;7.07;;;;;;;4.17;100.00;102298.13;5246781;28;20380;-72
2022/10/09 03:25:41;;;;;;;15.40;6.70;;;;;;;4.19;100.00;102285.28;5264687;28;20056;-71
2022/10/09 03:28:12;;;;;;;11.77;7.53;;;;;;;4.19;100.00;102290.47;5264524;28;20029;-72
2022/10/09 03:30:44;;;;;;;10.70;7.80;;;;;;;4.12;100.00;102289.34;5263644;28;20067;-72
2022/10/09 03:33:15;;;;;;;12.67;6.50;;;;;;;4.08;100.00;102290.03;5264214;28;20041;-72
2022/10/09 03:35:48;;;;;;;13.37;6.33;;;;;;;4.11;100.00;102282.41;5264436;28;20376;-72
2022/10/09 03:38:19;;;;;;;15.35;7.07;;;;;;;4.09;100.00;102288.34;5264422;28;20032;-72
2022/10/09 03:40:51;;;;;;;13.67;7.17;;;;;;;4.03;100.00;102289.00;5264886;28;20060;-72
2022/10/09 03:43:23;;;;;;;15.33;7.13;;;;;;;4.01;100.00;102285.47;5264482;28;20032;-72
2022/10/09 03:45:54;;;;;;;12.07;7.10;;;;;;;3.95;100.00;102280.94;5264467;28;20037;-72
2022/10/09 03:48:26;;;;;;;15.07;7.10;;;;;;;3.98;100.00;102275.91;5263875;28;20385;-72
2022/10/09 03:50:57;;;;;;;13.40;7.30;;;;;;;3.96;100.00;102282.72;5264151;28;20435;-72
2022/10/09 03:53:28;;;;;;;16.73;6.80;;;;;;;3.90;100.00;102281.63;5264901;28;20040;-72
2022/10/09 03:56:00;;;;;;;12.53;6.30;;;;;;;3.86;100.00;102278.00;5264674;28;20033;-72
2022/10/09 03:58:31;;;;;;;14.50;7.33;;;;;;;3.82;100.00;102284.75;5263938;28;20029;-72
2022/10/09 04:01:02;;;;;;;11.97;6.83;;;;;;;3.77;100.00;102281.13;5280180;28;20032;-72
2022/10/09 04:03:34;;;;;;;10.43;5.70;;;;;;;3.77;100.00;102290.56;5263821;28;20052;-72
2022/10/09 04:06:05;;;;;;;14.37;8.13;;;;;;;3.72;100.00;102298.13;5263874;28;20423;-72
2022/10/09 04:08:37;;;;;;;10.77;6.60;;;;;;;3.75;100.00;102290.50;5263679;28;20037;-72
2022/10/09 04:11:08;;;;;;;10.43;6.90;;;;;;;3.68;100.00;102296.22;5263985;28;20036;-72
2022/10/09 04:13:39;;;;;;;13.73;6.97;;;;;;;3.63;100.00;102290.88;5263355;28;20036;-72
2022/10/09 04:16:11;;;;;;;13.17;7.80;;;;;;;3.61;100.00;102289.09;5262956;28;20067;-72
2022/10/09 04:18:43;;;;;;;12.03;7.00;;;;;;;3.59;100.00;102293.28;5263518;28;20025;-72
2022/10/09 04:21:15;;;;;;;12.35;6.57;;;;;;;3.58;100.00;102283.78;5264340;28;20571;-72
2022/10/09 04:23:46;;;;;;;11.53;6.17;;;;;;;3.49;100.00;102286.88;5263072;28;20136;-72
2022/10/09 04:26:18;;;;;;;15.33;7.67;;;;;;;3.46;100.00;102277.34;5263205;28;20032;-72
2022/10/09 04:28:49;;;;;;;12.03;7.23;;;;;;;3.44;100.00;102288.38;5262550;28;20123;-72
2022/10/09 04:31:20;;;;;;;12.30;6.63;;;;;;;3.38;100.00;102275.25;5263109;28;20092;-73
2022/10/09 04:33:55;;;;;;;12.80;6.80;;;;;;;3.34;100.00;102276.81;5262937;28;20057;-72
2022/10/09 04:36:26;;;;;;;16.70;6.88;;;;;;;3.33;100.00;102271.59;5263798;28;20021;-75
2022/10/09 04:38:57;;;;;;;10.97;6.53;;;;;;;3.31;100.00;102276.69;5263589;28;20029;-72
2022/10/09 04:41:29;;;;;;;12.50;6.83;;;;;;;3.25;100.00;102272.19;5262486;28;20025;-73
2022/10/09 04:44:00;;;;;;;19.43;7.37;;;;;;;3.25;100.00;102274.75;5263105;28;20163;-72
2022/10/09 04:46:32;;;;;;;16.97;6.43;;;;;;;3.22;100.00;102278.88;5262672;28;20033;-74
2022/10/09 04:49:03;;;;;;;13.83;6.83;;;;;;;3.22;100.00;102272.06;5262785;28;20490;-72
2022/10/09 04:51:34;;;;;;;19.03;7.60;;;;;;;3.21;100.00;102267.72;5262930;28;20059;-72
2022/10/09 04:54:06;;;;;;;10.50;6.73;;;;;;;3.21;100.00;102270.28;5263014;28;20078;-72
2022/10/09 04:56:38;;;;;;;13.80;6.83;;;;;;;3.13;100.00;102263.06;5263154;28;20163;-73
2022/10/09 04:59:09;;;;;;;12.90;7.67;;;;;;;3.16;100.00;102274.38;5261967;28;20081;-72
2022/10/09 05:01:41;;;;;;;14.30;6.37;;;;;;;3.12;100.00;102264.75;5262666;28;20056;-72
2022/10/09 05:04:12;;;;;;;14.10;6.57;;;;;;;3.09;100.00;102256.88;5261432;28;20037;-71
2022/10/09 05:06:43;;;;;;;9.63;5.97;;;;;;;3.06;100.00;102256.78;5262476;28;20033;-72
2022/10/09 05:09:15;;;;;;;17.67;6.53;;;;;;;3.04;100.00;102258.38;5262545;28;20025;-72
2022/10/09 05:11:46;;;;;;;13.20;7.40;;;;;;;3.01;100.00;102251.44;5262650;28;20108;-72
2022/10/09 05:14:17;;;;;;;13.90;5.97;;;;;;;2.99;100.00;102247.03;5262444;28;20527;-72
2022/10/09 05:16:51;;;;;;;11.93;6.30;;;;;;;2.99;100.00;102245.31;5262271;28;20025;-73
2022/10/09 05:19:23;;;;;;;12.40;5.75;;;;;;;2.95;100.00;102252.84;5262619;28;20033;-72
2022/10/09 05:21:54;;;;;;;12.60;6.47;;;;;;;2.92;100.00;102248.47;5262583;28;20037;-72
2022/10/09 05:24:26;;;;;;;9.70;5.57;;;;;;;2.89;100.00;102245.75;5262884;28;20095;-72
2022/10/09 05:26:57;;;;;;;11.80;5.33;;;;;;;2.83;100.00;102242.91;5263221;28;20449;-72
2022/10/09 05:29:28;;;;;;;9.90;5.70;;;;;;;2.81;100.00;102249.72;5262531;28;20366;-73
2022/10/09 05:32:00;;;;;;;11.43;5.57;;;;;;;2.74;100.00;102243.41;5262713;28;20033;-73
2022/10/09 05:34:33;;;;;;;11.20;5.80;;;;;;;2.72;100.00;102248.50;5261844;28;20036;-72
2022/10/09 05:37:04;;;;;;;10.35;6.00;;;;;;;2.69;100.00;102247.50;5262405;28;20040;-73
2022/10/09 05:39:37;;;;;;;7.67;5.57;;;;;;;2.68;100.00;102245.72;5265530;28;20037;-72
2022/10/09 05:42:08;;;;;;;9.75;6.15;;;;;;;2.64;100.00;102241.25;5265344;28;20074;-72
2022/10/09 05:44:39;;;;;;;11.43;7.33;;;;;;;2.62;100.00;102242.88;5266671;28;20555;-72
2022/10/09 05:47:12;;;;;;;10.00;5.50;;;;;;;2.60;100.00;102247.09;5267202;28;20025;-72
2022/10/09 05:49:44;;;;;;;12.70;6.45;;;;;;;2.58;100.00;102241.88;5266987;28;20033;-72
2022/10/09 05:52:15;;;;;;;10.33;7.03;;;;;;;2.62;100.00;102246.31;5265098;28;20434;-72
2022/10/09 05:54:46;;;;;;;10.67;7.20;;;;;;;2.61;100.00;102246.25;5264938;28;20384;-72
2022/10/09 05:57:18;;;;;;;9.83;7.50;;;;;;;2.57;100.00;102245.25;5265965;28;20033;-72
2022/10/09 05:59:49;;;;;;;13.93;8.90;;;;;;;2.57;100.00;102232.38;5266153;28;20033;-72
2022/10/09 06:02:20;;;;;;;9.70;6.90;;;;;;;2.54;100.00;102246.03;5264748;28;20051;-72
2022/10/09 06:04:52;;;;;;;8.90;6.53;;;;;;;2.60;100.00;102247.09;5265999;28;20029;-72
2022/10/09 06:07:23;;;;;;;10.23;6.73;;;;;;;2.58;100.00;102240.97;5265394;28;20032;-72
2022/10/09 06:09:54;;;;;;;11.60;6.93;;;;;;;2.64;100.00;102246.41;5266219;28;20392;-72
2022/10/09 06:12:26;;;;;;;31.30;21.33;;;;;;;2.66;100.00;102242.22;5265364;28;20041;-72
2022/10/09 06:14:57;;;;;;;21.27;16.57;;;;;;;2.70;100.00;102241.50;5265883;28;20423;-72
2022/10/09 06:17:28;;;;;;;15.90;10.63;;;;;;;2.67;100.00;102246.53;5265697;28;20215;-72
2022/10/09 06:20:00;;;;;;;13.70;8.40;;;;;;;2.76;100.00;102246.94;5265919;28;20460;-72
2022/10/09 06:22:31;;;;;;;10.60;6.90;;;;;;;2.74;100.00;102244.28;5265956;28;20036;-72
2022/10/09 06:25:03;;;;;;;10.23;6.97;;;;;;;2.74;100.00;102249.44;5265398;28;20025;-73
2022/10/09 06:27:34;;;;;;;11.20;7.43;;;;;;;2.80;100.00;102237.63;5265490;28;20033;-72
2022/10/09 06:30:06;;;;;;;13.03;6.37;;;;;;;2.80;100.00;102246.25;5264512;28;20029;-72
2022/10/09 06:32:37;;;;;;;12.93;7.80;;;;;;;2.81;100.00;102252.28;5265817;28;20483;-71
2022/10/09 06:35:09;;;;;;;9.17;6.57;;;;;;;2.86;100.00;102251.66;5265510;28;20267;-72
2022/10/09 06:37:40;;;;;;;12.77;7.70;;;;;;;2.95;100.00;102250.25;5265354;28;20079;-71
2022/10/09 06:40:11;;;;;;;11.43;6.40;;;;;;;3.00;100.00;102252.25;5265207;28;20028;-72
2022/10/09 06:42:43;;;;;;;11.40;6.73;;;;;;;3.01;100.00;102254.00;5265183;28;20036;-72
2022/10/09 06:45:14;;;;;;;14.23;7.93;;;;;;;3.09;100.00;102257.78;5264739;28;20029;-71
2022/10/09 06:47:45;;;;;;;19.53;7.97;;;;;;;3.09;100.00;102238.84;5265187;28;20082;-71
2022/10/09 06:50:17;;;;;;;14.87;6.53;;;;;;;3.21;100.00;102254.81;5264380;28;20029;-72
2022/10/09 06:52:48;;;;;;;13.60;7.40;;;;;;;3.37;100.00;102258.03;5265332;28;20082;-72
2022/10/09 06:55:20;;;;;;;13.97;7.77;;;;;;;3.43;100.00;102237.63;5264656;28;20112;-72
2022/10/09 06:57:51;;;;;;;10.93;7.47;;;;;;;3.49;100.00;102252.47;5264614;28;20350;-72
2022/10/09 07:00:23;;;;;;;14.73;6.77;;;;;;;3.65;100.00;102260.91;5264974;28;20091;-72
2022/10/09 07:02:54;;;;;;;16.37;7.37;;;;;;;3.77;100.00;102254.47;5264750;28;20472;-72
2022/10/09 07:05:25;;;;;;;10.27;7.67;;;;;;;3.82;100.00;102252.94;5265059;28;20449;-72
2022/10/09 07:07:57;;;;;;;15.30;7.67;;;;;;;4.00;100.00;102253.63;5265263;28;20075;-72
2022/10/09 07:10:28;;;;;;;14.33;9.27;;;;;;;4.18;100.00;102256.00;5264586;28;20033;-72
2022/10/09 07:12:59;;;;;;;18.43;9.17;;;;;;;4.38;100.00;102255.88;5264791;28;20037;-73
2022/10/09 07:15:31;;;;;;;15.97;10.20;;;;;;;4.53;100.00;102260.72;5264322;28;20053;-72
2022/10/09 07:18:03;;;;;;;18.50;11.77;;;;;;;4.67;100.00;102249.16;5264290;28;20480;-73
2022/10/09 07:20:35;;;;;;;18.20;11.50;;;;;;;4.96;100.00;102253.56;5264055;28;20040;-73
2022/10/09 07:23:06;;;;;;;16.50;9.82;;;;;;;5.07;100.00;102254.81;5264347;28;20393;-72
2022/10/09 07:25:37;;;;;;;14.80;10.27;;;;;;;5.20;100.00;102254.41;5264165;28;20029;-73
2022/10/09 07:28:09;;;;;;;15.27;10.83;;;;;;;5.36;100.00;102263.53;5263989;28;20033;-73
2022/10/09 07:30:40;;;;;;;14.70;10.80;;;;;;;5.45;100.00;102250.88;5263084;28;20440;-72
2022/10/09 07:33:12;;;;;;;22.23;11.67;;;;;;;5.66;100.00;102253.25;5264693;28;20040;-73
2022/10/09 07:35:51;;;;;;;16.33;10.97;;;;;;;5.77;100.00;102248.44;5264302;28;20486;-72
2022/10/09 07:38:23;;;;;;;17.52;10.88;;;;;;;5.90;100.00;102252.25;5264154;28;20033;-73
2022/10/09 07:41:00;;;;;;;15.80;11.77;;;;;;;6.09;100.00;102250.28;5263236;28;20059;-72
2022/10/09 07:43:34;;;;;;;17.00;11.25;;;;;;;6.21;100.00;102248.03;5264263;28;20029;-72
2022/10/09 07:46:10;;;;;;;17.02;11.98;;;;;;;6.41;100.00;102251.19;5263912;28;20033;-76
2022/10/09 07:48:42;;;;;;;18.90;11.23;;;;;;;6.53;100.00;102251.50;5263827;28;20037;-72
2022/10/09 07:51:24;;;;;;;18.48;11.43;;;;;;;6.71;100.00;102258.03;5263137;28;20445;-74
2022/10/09 07:53:57;;;;;;;19.48;12.13;;;;;;;6.92;100.00;102249.94;5263271;28;20044;-72
2022/10/09 07:56:33;;;;;;;17.52;11.68;;;;;;;7.05;100.00;102249.44;5263527;28;20071;-72
2022/10/09 07:59:07;;;;;;;14.07;10.77;;;;;;;7.24;100.00;102262.84;5263252;28;20037;-73
2022/10/09 08:01:39;;;;;;;17.83;10.68;;;;;;;7.30;100.00;102243.13;5260761;28;20033;-73
2022/10/09 08:04:11;;;;;;;17.60;11.90;;;;;;;7.41;100.00;102245.97;5263965;28;20036;-77
2022/10/09 08:06:42;;;;;;;20.17;9.97;;;;;;;7.56;100.00;102244.59;5263205;28;20025;-74
2022/10/09 08:09:14;;;;;;;17.90;11.23;;;;;;;7.70;100.00;102245.78;5263131;28;20033;-73
2022/10/09 08:11:45;;;;;;;13.47;10.20;;;;;;;7.84;100.00;102241.78;5263641;28;20433;-74
2022/10/09 08:14:17;;;;;;;14.77;10.13;;;;;;;8.00;100.00;102242.09;5263510;28;20389;-74
2022/10/09 08:16:48;;;;;;;18.15;10.90;;;;;;;8.12;100.00;102238.88;5263753;28;20033;-73
2022/10/09 08:19:20;;;;;;;15.27;11.10;;;;;;;8.25;99.74;102238.28;5263275;28;20068;-77
2022/10/09 08:21:51;;;;;;;18.00;10.40;;;;;;;8.37;99.21;102237.63;5263074;28;20040;-74
2022/10/09 08:24:28;;;;;;;13.65;9.98;;;;;;;8.46;98.31;102239.59;5297876;27;1440439;-72
2022/10/09 08:27:00;;;;;;;20.40;10.87;;;;;;;8.53;97.34;102236.25;5337392;28;20459;-72
2022/10/09 08:29:32;;;;;;;16.83;10.27;;;;;;;8.61;95.99;102231.19;5331608;28;20088;-73
2022/10/09 08:32:03;;;;;;;19.35;10.88;;;;;;;8.81;95.40;102229.84;5336491;27;20491;-73
2022/10/09 08:34:35;;;;;;;15.30;9.80;;;;;;;8.99;95.09;102229.28;5329295;28;20063;-73
2022/10/09 08:37:06;;;;;;;19.07;10.67;;;;;;;9.21;94.59;102227.91;5326513;28;20039;-73
2022/10/09 08:39:37;;;;;;;18.60;10.57;;;;;;;9.31;93.23;102231.53;5333456;27;20390;-73
2022/10/09 08:42:30;;;;;;;17.40;9.50;;;;;;;9.47;92.03;102217.03;5337147;27;20467;-73
2022/10/09 08:45:02;;;;;;;18.97;11.77;;;;;;;9.72;91.24;102226.06;5326316;28;20072;-74
2022/10/09 08:47:55;;;;;;;25.60;13.13;;;;;;;10.01;89.68;102226.47;5341632;27;20475;-74
2022/10/09 08:50:35;;;;;;;22.60;11.88;;;;;;;10.18;88.83;102218.84;5325863;27;20036;-74
2022/10/09 08:53:24;;;;;;;21.55;10.55;;;;;;;10.49;87.84;102218.34;5329603;28;20040;-74
2022/10/09 08:55:58;;;;;;;16.60;8.98;;;;;;;10.85;85.95;102217.84;5332555;28;20076;-74
2022/10/09 08:58:33;;;;;;;15.27;8.65;;;;;;;11.04;82.89;102216.25;5330638;27;20020;-74
2022/10/09 09:01:31;;;;;;;13.35;7.00;;;;;;;11.36;81.89;102214.75;5332750;27;20035;-72
2022/10/09 09:04:33;;;;;;;20.50;8.00;;;;;;;11.70;82.06;102210.59;5329480;28;20471;-72
2022/10/09 09:07:29;;;;;;;11.02;7.43;;;;;;;12.01;79.78;102209.06;5322571;28;20375;-76
2022/10/09 09:10:19;;;;;;;9.57;6.03;;;;;;;12.55;78.25;102197.88;5338509;28;20027;-74
2022/10/09 09:13:14;;;;;;;15.32;6.07;;;;;;;13.10;77.52;102199.63;5322472;28;20115;-77
2022/10/09 09:15:49;;;;;;;12.18;5.85;;;;;;;13.67;74.64;102196.97;5329027;28;20222;-74
2022/10/09 09:18:48;;;;;;;10.95;4.90;;;;;;;13.84;71.39;102191.66;5333712;27;20031;-75
2022/10/09 09:21:38;;;;;;;9.15;5.30;;;;;;;14.20;68.91;102182.75;5332851;28;20098;-75
2022/10/09 09:24:14;;;;;;;11.55;4.72;;;;;;;14.38;67.23;102181.75;5332604;28;20044;-74
2022/10/09 09:26:58;;;;;;;13.93;5.55;;;;;;;14.62;67.45;102185.16;5341536;27;20035;-74
2022/10/09 09:29:37;;;;;;;8.30;4.57;;;;;;;14.69;64.69;102178.94;5341314;28;20027;-74
2022/10/09 09:32:16;;;;;;;16.15;6.30;;;;;;;15.24;62.27;102174.09;5331454;27;20527;-74
2022/10/09 09:34:49;;;;;;;8.45;4.32;;;;;;;15.35;61.36;102174.84;5321038;28;20157;-74
2022/10/09 09:37:22;;;;;;;8.60;4.57;;;;;;;15.74;61.01;102156.03;5325124;28;20596;-74
2022/10/09 09:39:53;;;;;;;10.75;4.78;;;;;;;15.94;59.54;102153.16;5326855;28;20028;-74
2022/10/09 09:42:26;;;;;;;12.53;4.77;;;;;;;16.49;58.04;102154.16;5317450;28;20043;-75
2022/10/09 09:45:03;;;;;;;10.57;4.40;;;;;;;16.40;58.17;102145.50;5320942;28;20028;-74
2022/10/09 09:48:05;;;;;;;10.02;4.30;;;;;;;17.39;61.94;102145.56;5317042;28;20024;-74
2022/10/09 09:50:41;;;;;;;11.85;4.97;;;;;;;17.16;54.09;102144.22;5319374;28;20402;-74
2022/10/09 09:53:34;;;;;;;10.50;4.80;;;;;;;17.86;56.34;102128.75;5306584;28;20032;-74
2022/10/09 09:56:06;;;;;;;11.45;4.00;;;;;;;18.10;52.22;102134.44;5320999;28;20041;-73
2022/10/09 09:58:49;;;;;;;11.57;5.03;;;;;;;18.35;53.71;102133.84;5318708;28;20114;-74
2022/10/09 10:01:27;;;;;;;12.40;5.07;;;;;;;18.36;51.15;102130.31;5317893;28;20031;-77
2022/10/09 10:04:01;;;;;;;12.35;4.22;;;;;;;18.29;50.75;102134.88;5306299;28;20052;-74
2022/10/09 10:06:40;;;;;;;13.10;4.25;;;;;;;18.81;49.47;102127.44;5307495;28;20111;-74
2022/10/09 10:09:17;;;;;;;11.07;4.43;;;;;;;19.15;49.28;102131.00;5318122;28;20030;-73
2022/10/09 10:11:58;;;;;;;9.32;4.40;;;;;;;19.46;48.30;102123.06;5325369;28;20088;-74
2022/10/09 10:14:30;;;;;;;7.35;3.80;;;;;;;19.53;47.23;102121.97;5326081;28;20060;-74
2022/10/09 10:17:02;;;;;;;10.13;4.50;;;;;;;19.92;48.35;102115.56;5325511;28;20084;-74
2022/10/09 10:19:34;;;;;;;10.83;4.30;;;;;;;19.94;45.44;102108.44;5318349;28;20043;-77
2022/10/09 10:22:20;;;;;;;8.68;3.83;;;;;;;20.10;42.71;102112.34;5317747;28;20478;-74
2022/10/09 10:24:56;;;;;;;9.43;3.60;;;;;;;20.44;44.31;102111.25;5324594;28;20046;-73
2022/10/09 10:27:35;;;;;;;8.88;4.00;;;;;;;20.61;43.32;102108.03;5313303;28;20032;-74
2022/10/09 10:30:13;;;;;;;9.48;3.95;;;;;;;21.33;43.10;102107.28;5317246;28;20086;-73
2022/10/09 10:32:57;;;;;;;8.50;3.65;;;;;;;21.49;41.62;102095.22;5318294;28;20056;-73
2022/10/09 10:35:35;;;;;;;10.32;3.75;;;;;;;21.86;40.69;102092.91;5310790;28;20031;-73
2022/10/09 10:38:21;;;;;;;8.77;3.90;;;;;;;21.78;42.17;102087.06;5317563;28;20092;-74
2022/10/09 10:41:04;;;;;;;9.60;3.78;;;;;;;22.57;38.62;102084.75;5324743;28;20114;-74
2022/10/09 10:43:50;;;;;;;6.65;3.50;;;;;;;22.83;40.19;102085.41;5325256;28;20023;-73
2022/10/09 10:46:29;;;;;;;7.43;3.20;;;;;;;23.41;39.33;102076.63;5315753;28;20110;-74
2022/10/09 10:49:01;;;;;;;8.98;3.85;;;;;;;24.00;35.99;102075.59;5326309;28;20031;-76
2022/10/09 10:51:38;;;;;;;10.35;3.63;;;;;;;24.33;37.64;102066.03;5325402;28;20050;-74
2022/10/09 10:54:31;;;;;;;7.10;3.20;;;;;;;24.11;36.16;102068.91;5315973;28;20036;-73
2022/10/09 10:57:05;;;;;;;6.95;3.45;;;;;;;24.26;34.71;102065.44;5321368;28;20027;-74
2022/10/09 10:59:55;;;;;;;6.93;3.15;;;;;;;25.05;36.63;102056.09;5313558;28;20031;-73
2022/10/09 11:02:42;;;;;;;7.75;3.90;;;;;;;24.94;34.74;102046.88;5308700;28;20387;-73
2022/10/09 11:05:34;;;;;;;10.60;3.75;;;;;;;24.65;33.00;102051.06;5325956;28;20031;-73
2022/10/09 11:08:35;;;;;;;6.90;3.55;;;;;;;26.53;32.73;102042.38;5318335;28;20055;-73
2022/10/09 11:11:28;;;;;;;9.68;3.03;;;;;;;25.67;31.56;102050.94;5320348;28;20035;-73
2022/10/09 11:14:18;;;;;;;6.43;3.63;;;;;;;26.26;32.56;102036.88;5319622;28;20085;-73
2022/10/09 11:16:59;;;;;;;7.53;3.13;;;;;;;26.72;32.03;102037.66;5317428;28;20033;-73
2022/10/09 11:19:52;;;;;;;8.30;4.15;;;;;;;27.45;31.66;102026.00;5324838;28;20147;-74
2022/10/09 11:22:29;;;;;;;9.82;3.75;;;;;;;27.35;30.54;102022.16;5315809;28;20123;-74
2022/10/09 11:25:09;;;;;;;8.73;3.17;;;;;;;27.15;29.03;102028.78;5325464;28;20032;-74
2022/10/09 11:28:00;;;;;;;9.10;3.65;;;;;;;27.97;28.74;102018.19;5312187;28;20359;-74
2022/10/09 11:30:42;;;;;;;6.57;2.83;;;;;;;27.92;26.82;102010.41;5314139;28;20085;-73
2022/10/09 11:33:37;;;;;;;7.73;2.93;;;;;;;28.04;27.62;102010.59;5314211;28;20467;-74
2022/10/09 11:36:18;;;;;;;10.02;3.22;;;;;;;28.34;28.73;102013.00;5314293;28;20266;-73
2022/10/09 11:39:21;;;;;;;7.07;3.20;;;;;;;29.52;27.13;102005.59;5317682;28;20024;-73
2022/10/09 11:41:54;;;;;;;8.38;3.30;;;;;;;28.83;26.64;102001.53;5296637;28;20059;-73
2022/10/09 11:44:50;;;;;;;10.52;3.47;;;;;;;29.16;27.54;101999.19;5312224;28;20033;-73
2022/10/09 11:47:33;;;;;;;8.93;2.92;;;;;;;28.77;24.65;101993.06;5303935;28;20055;-73
2022/10/09 11:50:21;;;;;;;9.35;2.80;;;;;;;29.50;26.40;101986.03;5316300;28;20055;-73
2022/10/09 11:53:08;;;;;;;7.97;3.08;;;;;;;28.87;26.21;101983.41;5324449;28;20033;-74
2022/10/09 11:55:41;;;;;;;9.20;3.05;;;;;;;29.42;25.19;101971.34;5307638;27;20475;-77
2022/10/09 11:58:18;;;;;;;6.68;3.00;;;;;;;29.70;26.50;101980.00;5312981;28;20068;-74
2022/10/09 12:00:53;;;;;;;8.52;3.30;;;;;;;29.45;24.69;101967.56;5312782;28;20024;-74
2022/10/09 12:03:32;;;;;;;9.50;3.05;;;;;;;29.93;25.47;101972.06;5311079;28;20028;-74